createdAt,value
2022-10-28T00:00:45.101Z,20.60
2022-10-28T00:01:47.572Z,20.02
2022-10-28T00:02:50.227Z,19.73
2022-10-28T00:03:56.217Z,18.85
2022-10-28T00:04:58.824Z,18.70
2022-10-28T00:06:03.477Z,19.10
2022-10-28T00:07:05.965Z,18.15
2022-10-28T00:08:08.408Z,17.83
2022-10-28T00:09:12.273Z,18.48
2022-10-28T00:10:15.061Z,16.85
2022-10-28T00:11:20.396Z,19.58
2022-10-28T00:12:22.829Z,18.45
2022-10-28T00:13:25.258Z,16.58
2022-10-28T00:14:27.997Z,16.70
2022-10-28T00:15:31.143Z,17.58
2022-10-28T00:16:35.383Z,18.45
2022-10-28T00:17:38.219Z,17.42
2022-10-28T00:18:41.645Z,17.23
2022-10-28T00:19:44.089Z,18.35
2022-10-28T00:20:46.517Z,16.88
2022-10-28T00:21:49.042Z,18.92
2022-10-28T00:22:51.517Z,16.52
2022-10-28T00:23:54.692Z,15.75
2022-10-28T00:24:57.548Z,15.68
2022-10-28T00:26:11.885Z,15.23
2022-10-28T00:27:14.310Z,17.08
2022-10-28T00:28:16.699Z,16.35
2022-10-28T00:29:20.011Z,16.67
2022-10-28T00:30:22.461Z,17.00
2022-10-28T00:31:26.822Z,15.35
2022-10-28T00:32:30.408Z,16.00
2022-10-28T00:33:33.002Z,14.65
2022-10-28T00:34:35.512Z,14.00
2022-10-28T00:35:38.073Z,13.88
2022-10-28T00:36:42.732Z,14.85
2022-10-28T00:37:45.229Z,14.38
2022-10-28T00:38:49.910Z,15.02
2022-10-28T00:39:52.357Z,14.45
2022-10-28T00:40:54.774Z,13.48
2022-10-28T00:41:59.555Z,14.35
2022-10-28T00:43:02.185Z,13.38
2022-10-28T00:44:42.201Z,14.95
2022-10-28T00:45:44.771Z,14.32
2022-10-28T00:46:49.705Z,14.02
2022-10-28T00:47:58.308Z,14.02
2022-10-28T00:49:04.995Z,12.98
2022-10-28T00:50:16.406Z,14.75
2022-10-28T00:51:21.695Z,14.43
2022-10-28T00:52:27.344Z,13.40
2022-10-28T00:53:30.348Z,14.10
2022-10-28T00:54:33.127Z,14.50
2022-10-28T00:55:36.496Z,14.50
2022-10-28T00:56:45.407Z,14.32
2022-10-28T00:57:48.236Z,13.43
2022-10-28T00:58:50.926Z,13.93
2022-10-28T00:59:53.933Z,14.48
2022-10-28T01:00:56.766Z,14.43
2022-10-28T01:01:59.315Z,15.25
2022-10-28T01:03:02.213Z,13.82
2022-10-28T01:04:04.754Z,14.02
2022-10-28T01:05:07.667Z,13.75
2022-10-28T01:06:10.628Z,14.02
2022-10-28T01:07:13.839Z,14.73
2022-10-28T01:08:16.588Z,14.65
2022-10-28T01:09:19.184Z,14.18
2022-10-28T01:10:27.154Z,14.25
2022-10-28T01:11:41.047Z,14.73
2022-10-28T01:13:08.724Z,15.93
2022-10-28T01:14:23.201Z,14.18
2022-10-28T01:15:42.186Z,14.88
2022-10-28T01:16:56.562Z,14.60
2022-10-28T01:18:11.731Z,15.57
2022-10-28T01:19:46.137Z,15.80
2022-10-28T01:21:03.578Z,14.95
2022-10-28T01:22:17.106Z,13.93
2022-10-28T01:23:28.426Z,15.57
2022-10-28T01:24:34.018Z,16.48
2022-10-28T01:26:12.187Z,16.95
2022-10-28T01:27:36.293Z,14.73
2022-10-28T01:28:58.809Z,16.10
2022-10-28T01:30:11.607Z,15.73
2022-10-28T01:31:30.512Z,14.98
2022-10-28T01:33:10.516Z,15.02
2022-10-28T01:34:24.258Z,14.18
2022-10-28T01:35:44.416Z,14.15
2022-10-28T01:36:58.715Z,16.02
2022-10-28T01:38:35.059Z,15.70
2022-10-28T01:39:54.234Z,15.05
2022-10-28T01:41:15.155Z,15.15
2022-10-28T01:43:52.180Z,14.07
2022-10-28T01:45:15.142Z,16.17
2022-10-28T01:46:22.174Z,14.45
2022-10-28T01:47:47.475Z,16.48
2022-10-28T01:48:54.256Z,16.15
2022-10-28T01:50:02.277Z,16.02
2022-10-28T01:51:09.391Z,15.82
2022-10-28T01:52:14.661Z,15.23
2022-10-28T01:53:24.098Z,14.50
2022-10-28T01:54:28.077Z,13.98
2022-10-28T01:55:36.778Z,16.05
2022-10-28T01:56:41.569Z,15.93
2022-10-28T01:57:44.126Z,15.68
2022-10-28T01:58:47.049Z,15.00
2022-10-28T01:59:49.981Z,15.75
2022-10-28T02:00:52.493Z,16.13
2022-10-28T02:01:55.805Z,16.20
2022-10-28T02:02:58.353Z,16.00
2022-10-28T02:04:01.588Z,15.38
2022-10-28T02:05:42.796Z,15.57
2022-10-28T02:06:48.469Z,15.35
2022-10-28T02:07:51.441Z,15.07
2022-10-28T02:09:35.638Z,15.88
2022-10-28T02:10:46.076Z,14.82
2022-10-28T02:12:07.578Z,17.00
2022-10-28T02:13:13.581Z,15.35
2022-10-28T02:14:22.606Z,14.40
2022-10-28T02:15:47.146Z,15.20
2022-10-28T02:17:14.758Z,14.10
2022-10-28T02:18:50.949Z,14.43
2022-10-28T02:20:18.442Z,15.10
2022-10-28T02:22:08.095Z,14.90
2022-10-28T02:23:16.310Z,15.55
2022-10-28T02:24:40.745Z,15.13
2022-10-28T02:25:54.870Z,14.80
2022-10-28T02:27:06.473Z,15.57
2022-10-28T02:29:25.862Z,16.45
2022-10-28T02:30:39.671Z,16.08
2022-10-28T02:32:06.154Z,14.07
2022-10-28T02:33:11.866Z,15.13
2022-10-28T02:34:20.637Z,16.00
2022-10-28T02:35:34.639Z,15.27
2022-10-28T02:36:40.771Z,16.13
2022-10-28T02:37:45.957Z,16.48
2022-10-28T02:38:50.739Z,15.82
2022-10-28T02:39:57.224Z,16.20
2022-10-28T02:41:03.427Z,15.85
2022-10-28T02:42:15.334Z,15.18
2022-10-28T02:43:18.559Z,15.45
2022-10-28T02:44:25.449Z,15.10
2022-10-28T02:45:39.133Z,16.02
2022-10-28T02:46:43.775Z,16.02
2022-10-28T02:47:52.995Z,15.68
2022-10-28T02:49:03.537Z,15.18
2022-10-28T02:50:11.086Z,16.80
2022-10-28T02:51:30.213Z,16.67
2022-10-28T02:52:32.995Z,16.63
2022-10-28T02:53:44.318Z,16.58
2022-10-28T02:54:53.509Z,16.35
2022-10-28T02:55:57.763Z,15.73
2022-10-28T02:57:25.616Z,15.85
2022-10-28T02:58:28.093Z,15.60
2022-10-28T02:59:30.640Z,16.30
2022-10-28T03:00:33.052Z,15.93
2022-10-28T03:01:35.593Z,15.82
2022-10-28T03:02:38.226Z,15.43
2022-10-28T03:03:41.328Z,17.17
2022-10-28T03:04:43.815Z,16.70
2022-10-28T03:05:46.563Z,15.43
2022-10-28T03:06:49.293Z,15.82
2022-10-28T03:07:51.870Z,17.00
2022-10-28T03:08:54.648Z,16.38
2022-10-28T03:09:57.165Z,15.30
2022-10-28T03:10:59.622Z,15.63
2022-10-28T03:12:02.202Z,16.20
2022-10-28T03:13:04.591Z,16.48
2022-10-28T03:14:09.543Z,17.92
2022-10-28T03:15:14.339Z,15.85
2022-10-28T03:16:16.758Z,15.82
2022-10-28T03:17:19.283Z,15.77
2022-10-28T03:18:21.791Z,16.02
2022-10-28T03:19:24.977Z,16.55
2022-10-28T03:20:27.416Z,16.25
2022-10-28T03:21:29.833Z,17.30
2022-10-28T03:22:32.405Z,16.98
2022-10-28T03:23:34.833Z,16.77
2022-10-28T03:24:37.372Z,16.20
2022-10-28T03:25:39.840Z,17.25
2022-10-28T03:26:42.234Z,16.30
2022-10-28T03:27:44.669Z,17.17
2022-10-28T03:28:47.306Z,15.93
2022-10-28T03:29:49.749Z,15.43
2022-10-28T03:30:52.242Z,16.17
2022-10-28T03:31:54.746Z,16.70
2022-10-28T03:32:57.346Z,16.40
2022-10-28T03:34:00.132Z,16.98
2022-10-28T03:35:02.538Z,16.15
2022-10-28T03:36:05.250Z,16.30
2022-10-28T03:37:07.570Z,16.30
2022-10-28T03:38:10.133Z,15.32
2022-10-28T03:39:12.498Z,16.13
2022-10-28T03:40:15.187Z,15.32
2022-10-28T03:41:17.674Z,15.45
2022-10-28T03:42:20.173Z,15.90
2022-10-28T03:43:22.704Z,15.52
2022-10-28T03:44:25.254Z,15.85
2022-10-28T03:45:30.856Z,16.30
2022-10-28T03:46:35.196Z,16.25
2022-10-28T03:47:38.685Z,16.15
2022-10-28T03:48:41.226Z,15.35
2022-10-28T03:49:43.704Z,15.35
2022-10-28T03:50:46.172Z,15.32
2022-10-28T03:51:48.844Z,16.63
2022-10-28T03:52:51.741Z,15.20
2022-10-28T03:53:54.218Z,15.68
2022-10-28T03:54:56.658Z,15.80
2022-10-28T03:56:00.510Z,14.57
2022-10-28T03:57:02.947Z,14.65
2022-10-28T03:58:05.504Z,15.23
2022-10-28T03:59:11.745Z,14.75
2022-10-28T04:00:16.668Z,14.52
2022-10-28T04:01:19.429Z,15.50
2022-10-28T04:02:21.932Z,15.52
2022-10-28T04:03:25.323Z,15.48
2022-10-28T04:04:30.607Z,14.48
2022-10-28T04:05:33.299Z,15.05
2022-10-28T04:06:35.727Z,15.85
2022-10-28T04:07:38.282Z,15.55
2022-10-28T04:08:40.759Z,13.38
2022-10-28T04:09:43.294Z,14.43
2022-10-28T04:10:47.516Z,14.90
2022-10-28T04:11:50.249Z,14.48
2022-10-28T04:12:53.075Z,14.10
2022-10-28T04:13:55.723Z,15.07
2022-10-28T04:14:58.270Z,15.10
2022-10-28T04:16:02.023Z,15.52
2022-10-28T04:17:04.442Z,14.85
2022-10-28T04:18:06.767Z,17.00
2022-10-28T04:19:09.209Z,15.40
2022-10-28T04:20:11.908Z,14.77
2022-10-28T04:21:14.310Z,15.00
2022-10-28T04:22:16.959Z,15.27
2022-10-28T04:23:19.532Z,14.73
2022-10-28T04:24:22.028Z,15.15
2022-10-28T04:25:26.110Z,14.93
2022-10-28T04:26:31.994Z,16.17
2022-10-28T04:27:34.508Z,14.88
2022-10-28T04:28:37.154Z,15.43
2022-10-28T04:29:39.600Z,14.82
2022-10-28T04:30:41.966Z,16.23
2022-10-28T04:31:46.453Z,16.60
2022-10-28T04:32:51.205Z,15.38
2022-10-28T04:33:53.996Z,15.27
2022-10-28T04:34:56.504Z,14.77
2022-10-28T04:35:58.913Z,14.20
2022-10-28T04:37:01.284Z,16.92
2022-10-28T04:38:03.774Z,14.75
2022-10-28T04:39:06.341Z,14.77
2022-10-28T04:40:09.607Z,14.30
2022-10-28T04:41:15.247Z,15.18
2022-10-28T04:42:17.786Z,14.73
2022-10-28T04:43:20.223Z,15.57
2022-10-28T04:44:22.667Z,15.50
2022-10-28T04:45:25.197Z,15.15
2022-10-28T04:46:27.741Z,15.10
2022-10-28T04:47:30.535Z,16.38
2022-10-28T04:48:34.175Z,15.65
2022-10-28T04:49:38.846Z,14.95
2022-10-28T04:50:41.497Z,15.52
2022-10-28T04:52:55.158Z,15.80
2022-10-28T04:53:57.903Z,15.10
2022-10-28T04:55:00.373Z,16.52
2022-10-28T04:56:02.850Z,14.13
2022-10-28T04:57:05.538Z,13.80
2022-10-28T04:58:08.018Z,15.18
2022-10-28T04:59:10.517Z,14.30
2022-10-28T05:00:13.418Z,15.07
2022-10-28T05:01:15.965Z,14.50
2022-10-28T05:02:19.081Z,13.80
2022-10-28T05:03:21.771Z,14.60
2022-10-28T05:04:24.298Z,14.38
2022-10-28T05:05:26.896Z,13.73
2022-10-28T05:06:29.387Z,15.18
2022-10-28T05:07:31.860Z,15.00
2022-10-28T05:08:34.335Z,13.13
2022-10-28T05:09:36.876Z,13.35
2022-10-28T05:10:39.400Z,14.75
2022-10-28T05:11:41.959Z,13.23
2022-10-28T05:12:45.606Z,13.27
2022-10-28T05:13:48.220Z,13.95
2022-10-28T05:14:53.064Z,14.57
2022-10-28T05:15:55.764Z,13.30
2022-10-28T05:16:58.189Z,13.68
2022-10-28T05:18:00.964Z,13.23
2022-10-28T05:19:03.424Z,14.30
2022-10-28T05:20:06.655Z,13.98
2022-10-28T05:21:09.152Z,13.50
2022-10-28T05:22:11.621Z,13.02
2022-10-28T05:23:14.405Z,13.27
2022-10-28T05:24:16.818Z,13.70
2022-10-28T05:25:19.863Z,13.80
2022-10-28T05:26:22.421Z,13.60
2022-10-28T05:27:24.865Z,13.20
2022-10-28T05:28:27.353Z,12.80
2022-10-28T05:29:33.292Z,14.82
2022-10-28T05:30:37.968Z,15.95
2022-10-28T05:31:40.382Z,16.92
2022-10-28T05:32:42.963Z,15.52
2022-10-28T05:33:45.564Z,15.43
2022-10-28T05:34:48.101Z,16.05
2022-10-28T05:35:50.532Z,16.98
2022-10-28T05:36:52.929Z,16.02
2022-10-28T05:37:55.422Z,17.10
2022-10-28T05:38:57.944Z,16.42
2022-10-28T05:40:00.378Z,16.70
2022-10-28T05:41:03.483Z,15.80
2022-10-28T05:42:05.955Z,16.23
2022-10-28T05:43:09.725Z,15.55
2022-10-28T05:44:12.328Z,15.57
2022-10-28T05:45:15.309Z,15.50
2022-10-28T05:46:17.906Z,15.00
2022-10-28T05:47:20.833Z,14.35
2022-10-28T05:48:24.282Z,15.13
2022-10-28T05:49:26.800Z,15.00
2022-10-28T05:50:29.421Z,14.32
2022-10-28T05:51:31.994Z,14.55
2022-10-28T05:52:34.464Z,15.63
2022-10-28T05:53:36.874Z,14.65
2022-10-28T05:54:39.468Z,15.07
2022-10-28T05:55:46.653Z,14.93
2022-10-28T06:00:59.006Z,15.32
2022-10-28T06:02:01.647Z,13.77
2022-10-28T06:03:09.278Z,13.93
2022-10-28T06:04:11.760Z,13.68
2022-10-28T06:05:14.813Z,13.95
2022-10-28T06:06:17.323Z,13.80
2022-10-28T06:07:19.876Z,15.13
2022-10-28T06:08:22.230Z,13.10
2022-10-28T06:09:27.660Z,13.93
2022-10-28T06:10:30.049Z,13.57
2022-10-28T06:11:30.978Z,15.02
2022-10-28T06:13:40.960Z,13.85
2022-10-28T06:14:43.435Z,13.95
2022-10-28T06:15:53.084Z,13.70
2022-10-28T06:16:55.562Z,13.75
2022-10-28T06:17:58.045Z,14.20
2022-10-28T06:19:00.792Z,14.75
2022-10-28T06:20:04.358Z,14.63
2022-10-28T06:21:06.921Z,14.45
2022-10-28T06:22:10.058Z,14.18
2022-10-28T06:23:12.581Z,15.00
2022-10-28T06:24:15.058Z,16.00
2022-10-28T06:25:19.922Z,14.63
2022-10-28T06:26:22.260Z,14.07
2022-10-28T06:27:24.849Z,16.08
2022-10-28T06:28:28.203Z,15.05
2022-10-28T06:29:31.937Z,14.95
2022-10-28T06:30:34.586Z,14.38
2022-10-28T06:31:41.026Z,14.30
2022-10-28T06:32:43.608Z,14.82
2022-10-28T06:33:46.238Z,13.57
2022-10-28T06:34:48.713Z,15.48
2022-10-28T06:35:56.477Z,15.15
2022-10-28T06:36:58.936Z,14.98
2022-10-28T06:38:03.751Z,14.98
2022-10-28T06:39:08.203Z,15.80
2022-10-28T06:40:10.865Z,15.27
2022-10-28T06:41:13.275Z,14.38
2022-10-28T06:42:16.208Z,15.57
2022-10-28T06:43:18.725Z,14.82
2022-10-28T06:44:21.103Z,15.95
2022-10-28T06:45:26.279Z,17.42
2022-10-28T06:46:28.857Z,15.38
2022-10-28T06:47:32.824Z,15.70
2022-10-28T06:48:35.448Z,14.77
2022-10-28T06:49:37.903Z,16.23
2022-10-28T06:50:40.455Z,14.98
2022-10-28T06:51:42.898Z,16.00
2022-10-28T06:53:53.208Z,15.35
2022-10-28T06:54:55.694Z,16.95
2022-10-28T06:55:58.697Z,16.45
2022-10-28T06:57:01.217Z,16.70
2022-10-28T06:58:04.207Z,15.40
2022-10-28T06:59:07.702Z,15.52
2022-10-28T07:00:10.867Z,15.38
2022-10-28T07:01:13.375Z,16.38
2022-10-28T07:02:16.021Z,15.60
2022-10-28T07:03:19.054Z,15.90
2022-10-28T07:04:21.458Z,15.40
2022-10-28T07:05:24.693Z,15.88
2022-10-28T07:06:27.139Z,15.52
2022-10-28T07:07:29.523Z,15.05
2022-10-28T07:08:32.776Z,15.10
2022-10-28T07:09:39.482Z,14.90
2022-10-28T07:10:42.372Z,14.77
2022-10-28T07:11:52.163Z,16.10
2022-10-28T07:12:56.470Z,15.23
2022-10-28T07:13:59.370Z,15.85
2022-10-28T07:15:01.944Z,15.55
2022-10-28T07:16:05.321Z,15.05
2022-10-28T07:17:07.793Z,17.08
2022-10-28T07:18:10.305Z,15.73
2022-10-28T07:19:12.911Z,16.45
2022-10-28T07:20:15.467Z,15.30
2022-10-28T07:21:18.424Z,14.90
2022-10-28T07:22:25.356Z,16.55
2022-10-28T07:23:28.832Z,15.50
2022-10-28T07:24:31.304Z,15.57
2022-10-28T07:25:33.791Z,15.93
2022-10-28T07:26:36.297Z,15.10
2022-10-28T07:27:38.724Z,15.60
2022-10-28T07:28:43.226Z,15.40
2022-10-28T07:29:45.849Z,16.73
2022-10-28T07:30:48.458Z,15.93
2022-10-28T07:31:54.661Z,16.73
2022-10-28T07:33:01.052Z,16.52
2022-10-28T07:34:03.510Z,16.10
2022-10-28T07:35:06.101Z,16.13
2022-10-28T07:37:27.096Z,14.13
2022-10-28T07:38:29.559Z,15.52
2022-10-28T07:39:32.270Z,14.70
2022-10-28T07:40:35.049Z,14.40
2022-10-28T07:41:44.346Z,13.43
2022-10-28T07:42:46.872Z,14.23
2022-10-28T07:43:49.871Z,14.05
2022-10-28T07:44:52.211Z,14.57
2022-10-28T07:45:58.172Z,14.68
2022-10-28T07:47:00.903Z,15.13
2022-10-28T07:48:04.287Z,14.30
2022-10-28T07:49:06.857Z,14.07
2022-10-28T07:50:10.472Z,13.77
2022-10-28T07:51:14.942Z,13.05
2022-10-28T07:52:17.355Z,13.60
2022-10-28T07:53:20.958Z,12.80
2022-10-28T07:54:25.086Z,13.20
2022-10-28T07:55:27.858Z,13.07
2022-10-28T07:56:30.359Z,12.52
2022-10-28T07:57:34.517Z,12.93
2022-10-28T07:58:37.385Z,11.68
2022-10-28T07:59:39.928Z,12.48
2022-10-28T08:00:42.503Z,13.15
2022-10-28T08:01:45.534Z,12.82
2022-10-28T08:02:48.016Z,13.07
2022-10-28T08:03:50.492Z,12.55
2022-10-28T08:04:53.283Z,13.13
2022-10-28T08:06:06.653Z,11.57
2022-10-28T08:07:09.061Z,12.85
2022-10-28T08:08:11.580Z,14.00
2022-10-28T08:09:13.951Z,13.10
2022-10-28T08:10:16.561Z,13.20
2022-10-28T08:11:22.704Z,12.85
2022-10-28T08:12:25.335Z,13.50
2022-10-28T08:13:27.870Z,12.13
2022-10-28T08:14:30.528Z,13.40
2022-10-28T08:15:33.345Z,13.68
2022-10-28T08:16:35.805Z,14.45
2022-10-28T08:17:38.372Z,13.93
2022-10-28T08:18:41.073Z,13.13
2022-10-28T08:19:43.623Z,13.15
2022-10-28T08:20:46.367Z,13.38
2022-10-28T08:21:48.949Z,13.77
2022-10-28T08:22:51.712Z,13.00
2022-10-28T08:23:55.198Z,12.27
2022-10-28T08:24:57.700Z,14.65
2022-10-28T08:26:00.162Z,12.82
2022-10-28T08:27:02.709Z,13.43
2022-10-28T08:28:05.149Z,12.45
2022-10-28T08:29:08.181Z,13.38
2022-10-28T08:30:11.123Z,13.68
2022-10-28T08:31:13.792Z,13.25
2022-10-28T08:32:16.511Z,13.30
2022-10-28T08:33:19.307Z,13.52
2022-10-28T08:34:21.847Z,12.85
2022-10-28T08:35:24.355Z,14.73
2022-10-28T08:36:26.983Z,14.00
2022-10-28T08:37:29.565Z,14.13
2022-10-28T08:38:32.223Z,14.10
2022-10-28T08:39:34.652Z,12.93
2022-10-28T08:40:51.117Z,13.43
2022-10-28T08:42:08.011Z,14.15
2022-10-28T08:43:56.664Z,12.43
2022-10-28T08:45:15.734Z,12.50
2022-10-28T08:46:23.911Z,12.88
2022-10-28T08:47:31.816Z,13.32
2022-10-28T08:48:36.581Z,12.90
2022-10-28T08:49:43.373Z,13.07
2022-10-28T08:50:52.257Z,13.05
2022-10-28T08:52:04.060Z,12.02
2022-10-28T08:53:14.780Z,12.07
2022-10-28T08:54:23.171Z,12.85
2022-10-28T08:55:40.914Z,12.98
2022-10-28T08:56:46.286Z,11.60
2022-10-28T08:57:56.380Z,12.23
2022-10-28T08:59:01.130Z,13.25
2022-10-28T09:00:07.824Z,11.68
2022-10-28T09:01:20.199Z,11.73
2022-10-28T09:02:24.688Z,12.73
2022-10-28T09:03:39.152Z,11.77
2022-10-28T09:04:46.230Z,12.52
2022-10-28T09:05:53.777Z,13.60
2022-10-28T09:06:56.407Z,11.70
2022-10-28T09:07:58.911Z,12.40
2022-10-28T09:09:01.466Z,12.05
2022-10-28T09:10:05.339Z,11.98
2022-10-28T09:11:10.812Z,11.15
2022-10-28T09:12:32.283Z,11.60
2022-10-28T09:13:58.622Z,11.32
2022-10-28T09:15:18.144Z,10.82
2022-10-28T09:16:47.231Z,10.23
2022-10-28T09:17:54.549Z,11.88
2022-10-28T09:18:59.301Z,10.23
2022-10-28T09:20:31.021Z,10.60
2022-10-28T09:21:59.640Z,10.02
2022-10-28T09:23:17.492Z,11.05
2022-10-28T09:24:26.084Z,11.25
2022-10-28T09:25:48.719Z,11.18
2022-10-28T09:27:11.365Z,10.90
2022-10-28T09:28:22.648Z,9.95
2022-10-28T09:29:31.107Z,11.48
2022-10-28T09:31:10.196Z,12.13
2022-10-28T09:32:26.435Z,10.63
2022-10-28T09:33:51.043Z,11.30
2022-10-28T09:35:06.458Z,11.80
2022-10-28T09:36:17.200Z,11.48
2022-10-28T09:37:27.305Z,12.75
2022-10-28T09:38:37.988Z,10.35
2022-10-28T09:39:49.916Z,11.45
2022-10-28T09:40:58.653Z,12.02
2022-10-28T09:42:01.427Z,12.18
2022-10-28T09:43:32.431Z,11.65
2022-10-28T09:44:43.697Z,11.55
2022-10-28T09:45:47.432Z,11.50
2022-10-28T09:46:55.171Z,13.00
2022-10-28T09:48:21.154Z,12.00
2022-10-28T09:49:29.137Z,11.40
2022-10-28T09:50:32.776Z,11.52
2022-10-28T09:51:44.985Z,11.82
2022-10-28T09:53:14.050Z,10.80
2022-10-28T09:54:17.947Z,12.55
2022-10-28T09:55:21.749Z,12.45
2022-10-28T09:56:25.477Z,11.77
2022-10-28T09:57:31.396Z,11.82
2022-10-28T09:58:35.036Z,11.10
2022-10-28T09:59:37.714Z,11.95
2022-10-28T10:00:40.543Z,12.57
2022-10-28T10:01:45.805Z,10.95
2022-10-28T10:02:57.640Z,11.25
2022-10-28T10:04:00.300Z,11.15
2022-10-28T10:05:03.380Z,11.90
2022-10-28T10:06:12.914Z,10.98
2022-10-28T10:07:29.479Z,11.80
2022-10-28T10:08:32.393Z,10.68
2022-10-28T10:09:36.202Z,13.15
2022-10-28T10:10:50.960Z,11.30
2022-10-28T10:11:56.437Z,11.82
2022-10-28T10:13:01.935Z,11.93
2022-10-28T10:14:11.423Z,10.60
2022-10-28T10:15:42.244Z,12.90
2022-10-28T10:16:54.180Z,11.93
2022-10-28T10:18:01.304Z,11.40
2022-10-28T10:19:05.610Z,12.40
2022-10-28T10:20:13.672Z,11.77
2022-10-28T10:21:16.694Z,12.20
2022-10-28T10:22:36.554Z,12.88
2022-10-28T10:24:45.395Z,11.60
2022-10-28T10:25:57.854Z,12.20
2022-10-28T10:27:10.391Z,13.13
2022-10-28T10:28:16.480Z,11.48
2022-10-28T10:29:19.556Z,12.07
2022-10-28T10:30:29.767Z,12.02
2022-10-28T10:31:32.329Z,11.57
2022-10-28T10:32:34.783Z,12.18
2022-10-28T10:33:39.426Z,12.02
2022-10-28T10:35:01.581Z,12.07
2022-10-28T10:36:13.571Z,12.48
2022-10-28T10:37:23.721Z,12.43
2022-10-28T10:38:27.302Z,11.70
2022-10-28T10:39:37.724Z,12.02
2022-10-28T10:40:51.828Z,11.63
2022-10-28T10:41:55.700Z,11.93
2022-10-28T10:43:17.602Z,12.55
2022-10-28T10:44:23.245Z,12.27
2022-10-28T10:45:27.523Z,11.98
2022-10-28T10:46:29.920Z,11.18
2022-10-28T10:47:32.380Z,11.65
2022-10-28T10:48:38.685Z,11.02
2022-10-28T10:49:41.165Z,11.77
2022-10-28T10:50:48.615Z,10.80
2022-10-28T10:51:52.818Z,11.55
2022-10-28T10:52:57.877Z,11.02
2022-10-28T10:54:00.968Z,11.27
2022-10-28T10:55:07.440Z,11.75
2022-10-28T10:56:11.220Z,11.38
2022-10-28T10:57:20.532Z,11.07
2022-10-28T10:58:25.475Z,10.63
2022-10-28T10:59:30.540Z,10.60
2022-10-28T11:00:37.537Z,10.13
2022-10-28T11:01:40.394Z,10.48
2022-10-28T11:02:46.201Z,9.98
2022-10-28T11:03:54.160Z,10.50
2022-10-28T11:05:01.787Z,10.68
2022-10-28T11:06:24.060Z,10.38
2022-10-28T11:07:28.400Z,9.77
2022-10-28T11:08:41.728Z,10.35
2022-10-28T11:09:47.837Z,9.85
2022-10-28T11:11:05.839Z,10.25
2022-10-28T11:12:38.960Z,8.93
2022-10-28T11:13:45.186Z,9.70
2022-10-28T11:15:17.661Z,8.48
2022-10-28T11:16:22.626Z,8.38
2022-10-28T11:17:28.675Z,8.82
2022-10-28T11:18:41.979Z,9.18
2022-10-28T11:19:44.431Z,9.68
2022-10-28T11:21:01.064Z,8.55
2022-10-28T11:22:06.072Z,8.38
2022-10-28T11:23:39.990Z,7.80
2022-10-28T11:25:06.798Z,8.32
2022-10-28T11:26:11.569Z,9.05
2022-10-28T11:27:38.529Z,8.52
2022-10-28T11:28:49.850Z,8.55
2022-10-28T11:29:52.755Z,7.60
2022-10-28T11:31:12.661Z,8.18
2022-10-28T11:32:48.887Z,8.02
2022-10-28T11:34:08.414Z,9.25
2022-10-28T11:35:35.017Z,8.75
2022-10-28T11:37:14.880Z,8.63
2022-10-28T11:38:22.833Z,8.50
2022-10-28T11:39:36.802Z,8.10
2022-10-28T11:41:03.367Z,8.95
2022-10-28T11:42:41.997Z,7.68
2022-10-28T11:43:54.534Z,8.27
2022-10-28T11:45:19.613Z,8.15
2022-10-28T11:46:35.048Z,7.78
2022-10-28T11:48:08.544Z,7.75
2022-10-28T11:49:35.973Z,7.90
2022-10-28T11:50:47.041Z,7.60
2022-10-28T11:51:59.732Z,8.57
2022-10-28T11:53:17.041Z,8.45
2022-10-28T11:54:31.511Z,9.05
2022-10-28T11:55:35.423Z,8.63
2022-10-28T11:56:48.653Z,8.50
2022-10-28T11:59:37.732Z,8.50
2022-10-28T12:01:10.583Z,8.52
2022-10-28T12:02:34.731Z,7.78
2022-10-28T12:03:49.865Z,8.32
2022-10-28T12:05:16.569Z,9.55
2022-10-28T12:06:24.359Z,7.85
2022-10-28T12:07:46.152Z,7.88
2022-10-28T12:09:00.218Z,7.32
2022-10-28T12:10:14.457Z,7.82
2022-10-28T12:11:40.330Z,8.13
2022-10-28T12:13:07.404Z,8.32
2022-10-28T12:14:30.862Z,8.35
2022-10-28T12:16:11.943Z,8.95
2022-10-28T12:18:22.222Z,9.20
2022-10-28T12:19:34.972Z,8.82
2022-10-28T12:20:46.378Z,8.50
2022-10-28T12:22:26.399Z,9.65
2022-10-28T12:23:30.291Z,8.80
2022-10-28T12:24:36.078Z,9.00
2022-10-28T12:25:40.868Z,8.25
2022-10-28T12:27:15.384Z,9.00
2022-10-28T12:28:31.015Z,8.18
2022-10-28T12:29:42.916Z,8.98
2022-10-28T12:30:47.661Z,8.98
2022-10-28T12:32:10.520Z,9.25
2022-10-28T12:33:35.057Z,9.50
2022-10-28T12:34:49.306Z,9.15
2022-10-28T12:35:55.846Z,8.57
2022-10-28T12:37:17.063Z,9.40
2022-10-28T12:38:28.643Z,9.23
2022-10-28T12:39:41.748Z,8.55
2022-10-28T12:41:10.478Z,8.60
2022-10-28T12:42:19.033Z,8.93
2022-10-28T12:43:34.199Z,9.02
2022-10-28T12:44:37.101Z,9.07
2022-10-28T12:45:40.784Z,9.43
2022-10-28T12:47:21.950Z,8.40
2022-10-28T12:48:49.067Z,9.02
2022-10-28T12:50:10.192Z,8.77
2022-10-28T12:51:20.844Z,8.68
2022-10-28T12:55:02.847Z,8.02
2022-10-28T12:56:12.425Z,8.75
2022-10-28T12:57:16.849Z,8.43
2022-10-28T12:58:28.140Z,8.32
2022-10-28T12:59:39.360Z,8.18
2022-10-28T13:00:49.375Z,8.45
2022-10-28T13:01:52.613Z,8.13
2022-10-28T13:03:10.158Z,9.32
2022-10-28T13:04:13.109Z,9.02
2022-10-28T13:05:24.124Z,9.27
2022-10-28T13:06:57.344Z,8.25
2022-10-28T13:08:02.704Z,8.02
2022-10-28T13:09:23.613Z,8.93
2022-10-28T13:10:43.618Z,9.07
2022-10-28T13:11:48.970Z,8.65
2022-10-28T13:13:13.655Z,9.48
2022-10-28T13:14:45.294Z,14.00
2022-10-28T13:16:08.419Z,14.23
2022-10-28T13:17:47.614Z,23.27
2022-10-28T13:19:17.782Z,16.17
2022-10-28T13:20:26.178Z,13.80
2022-10-28T13:21:44.916Z,12.55
2022-10-28T13:23:01.917Z,12.27
2022-10-28T13:24:34.806Z,11.07
2022-10-28T13:25:52.323Z,9.85
2022-10-28T13:26:55.098Z,9.85
2022-10-28T13:28:00.901Z,10.40
2022-10-28T13:29:07.357Z,10.63
2022-10-28T13:30:20.194Z,9.65
2022-10-28T13:31:22.933Z,8.95
2022-10-28T13:32:38.684Z,9.77
2022-10-28T13:33:50.904Z,9.32
2022-10-28T13:34:53.444Z,8.90
2022-10-28T13:36:09.596Z,9.07
2022-10-28T13:37:19.764Z,8.88
2022-10-28T13:38:25.542Z,7.85
2022-10-28T13:39:33.605Z,9.40
2022-10-28T13:40:36.290Z,9.50
2022-10-28T13:41:43.325Z,8.57
2022-10-28T13:42:49.760Z,8.35
2022-10-28T13:43:54.426Z,8.35
2022-10-28T13:44:58.857Z,8.70
2022-10-28T13:46:01.538Z,8.88
2022-10-28T13:47:24.554Z,7.72
2022-10-28T13:48:30.298Z,7.30
2022-10-28T13:49:38.360Z,8.27
2022-10-28T13:50:41.136Z,8.23
2022-10-28T13:51:47.212Z,7.30
2022-10-28T13:53:24.853Z,8.52
2022-10-28T13:54:52.166Z,7.75
2022-10-28T13:55:58.219Z,8.30
2022-10-28T13:57:07.139Z,7.75
2022-10-28T13:58:22.906Z,8.05
2022-10-28T13:59:29.177Z,7.38
2022-10-28T14:00:31.612Z,8.18
2022-10-28T14:02:01.728Z,9.05
2022-10-28T14:03:19.868Z,7.70
2022-10-28T14:04:29.372Z,8.20
2022-10-28T14:05:38.026Z,8.93
2022-10-28T14:06:40.600Z,8.73
2022-10-28T14:07:56.491Z,8.25
2022-10-28T14:08:59.465Z,8.27
2022-10-28T14:10:21.746Z,9.00
2022-10-28T14:11:26.154Z,9.02
2022-10-28T14:12:33.223Z,8.82
2022-10-28T14:13:47.037Z,8.70
2022-10-28T14:15:03.976Z,9.15
2022-10-28T14:16:26.745Z,8.90
2022-10-28T14:17:44.793Z,9.98
2022-10-28T14:19:11.079Z,9.80
2022-10-28T14:20:29.300Z,9.65
2022-10-28T14:21:44.599Z,8.00
2022-10-28T14:22:47.471Z,8.55
2022-10-28T14:24:07.110Z,9.38
2022-10-28T14:25:40.608Z,6.90
2022-10-28T14:27:15.519Z,8.13
2022-10-28T14:28:27.323Z,8.23
2022-10-28T14:29:30.235Z,8.43
2022-10-28T14:30:32.943Z,7.85
2022-10-28T14:31:39.405Z,8.82
2022-10-28T14:32:58.711Z,8.60
2022-10-28T14:34:21.184Z,7.53
2022-10-28T14:35:43.924Z,8.27
2022-10-28T14:37:07.720Z,9.60
2022-10-28T14:38:10.115Z,9.30
2022-10-28T14:39:33.124Z,8.82
2022-10-28T14:40:44.345Z,9.23
2022-10-28T14:42:10.976Z,9.13
2022-10-28T14:43:29.421Z,9.13
2022-10-28T14:44:47.819Z,9.30
2022-10-28T14:46:16.218Z,8.90
2022-10-28T14:47:32.290Z,9.20
2022-10-28T14:48:45.446Z,8.82
2022-10-28T14:50:03.068Z,8.95
2022-10-28T14:51:10.157Z,9.38
2022-10-28T14:52:16.630Z,8.60
2022-10-28T14:53:25.202Z,9.32
2022-10-28T14:54:43.812Z,8.35
2022-10-28T14:55:47.797Z,8.32
2022-10-28T14:56:55.733Z,9.35
2022-10-28T14:58:19.577Z,8.85
2022-10-28T14:59:27.985Z,8.82
2022-10-28T15:00:35.058Z,8.57
2022-10-28T15:02:00.573Z,8.70
2022-10-28T15:03:03.479Z,8.45
2022-10-28T15:04:12.059Z,8.50
2022-10-28T15:05:20.540Z,8.57
2022-10-28T15:06:39.523Z,8.82
2022-10-28T15:07:42.677Z,9.20